createdAt,value
2022-10-26T00:00:26.024Z,11.42
2022-10-26T00:02:55.047Z,11.44
2022-10-26T00:05:24.633Z,11.57
2022-10-26T00:07:51.426Z,11.66
2022-10-26T00:10:21.637Z,11.43
2022-10-26T00:12:50.923Z,11.54
2022-10-26T00:15:20.810Z,11.39
2022-10-26T00:17:48.429Z,11.29
2022-10-26T00:20:15.396Z,11.42
2022-10-26T00:22:42.087Z,11.48
2022-10-26T00:25:09.046Z,11.50
2022-10-26T00:27:35.904Z,11.37
2022-10-26T00:30:06.525Z,11.47
2022-10-26T00:32:34.323Z,11.30
2022-10-26T00:35:10.509Z,11.32
2022-10-26T00:37:48.159Z,11.26
2022-10-26T00:40:15.075Z,11.15
2022-10-26T00:42:42.252Z,11.16
2022-10-26T00:45:29.938Z,11.44
2022-10-26T00:48:03.233Z,11.41
2022-10-26T00:50:42.706Z,11.50
2022-10-26T00:53:11.160Z,11.69
2022-10-26T00:55:41.637Z,11.72
2022-10-26T00:58:10.273Z,11.59
2022-10-26T01:00:36.791Z,11.88
2022-10-26T01:03:08.120Z,12.01
2022-10-26T01:05:37.662Z,11.91
2022-10-26T01:08:04.691Z,11.80
2022-10-26T01:10:31.759Z,11.61
2022-10-26T01:12:59.344Z,11.80
2022-10-26T01:15:36.915Z,11.49
2022-10-26T01:18:41.824Z,11.70
2022-10-26T01:21:40.507Z,11.65
2022-10-26T01:24:09.985Z,11.74
2022-10-26T01:27:04.006Z,11.79
2022-10-26T01:29:53.624Z,11.62
2022-10-26T01:32:31.429Z,11.53
2022-10-26T01:35:13.195Z,11.61
2022-10-26T01:37:53.193Z,11.71
2022-10-26T01:40:25.540Z,11.85
2022-10-26T01:42:55.061Z,12.24
2022-10-26T01:45:21.916Z,12.04
2022-10-26T01:47:50.004Z,12.11
2022-10-26T01:50:19.633Z,12.31
2022-10-26T01:52:50.542Z,11.81
2022-10-26T01:55:38.866Z,11.71
2022-10-26T01:58:17.914Z,11.55
2022-10-26T02:01:14.623Z,11.48
2022-10-26T02:04:06.678Z,11.77
2022-10-26T02:07:11.887Z,11.65
2022-10-26T02:10:08.981Z,11.83
2022-10-26T02:12:51.748Z,11.41
2022-10-26T02:15:24.730Z,11.74
2022-10-26T02:18:04.060Z,11.30
2022-10-26T02:20:39.511Z,11.57
2022-10-26T02:23:07.993Z,12.02
2022-10-26T02:25:40.241Z,11.87
2022-10-26T02:28:13.056Z,11.80
2022-10-26T02:30:41.013Z,11.43
2022-10-26T02:33:11.809Z,11.98
2022-10-26T02:35:41.595Z,12.14
2022-10-26T02:38:12.757Z,11.99
2022-10-26T02:40:40.121Z,12.29
2022-10-26T02:43:13.505Z,12.01
2022-10-26T02:45:48.314Z,11.82
2022-10-26T02:48:15.443Z,12.16
2022-10-26T02:51:03.655Z,11.99
2022-10-26T02:53:38.970Z,12.31
2022-10-26T02:56:16.426Z,12.39
2022-10-26T02:58:49.436Z,11.89
2022-10-26T03:01:16.433Z,12.27
2022-10-26T03:03:43.043Z,12.25
2022-10-26T03:06:09.644Z,11.57
2022-10-26T03:08:36.312Z,11.74
2022-10-26T03:11:02.862Z,11.84
2022-10-26T03:13:29.380Z,11.93
2022-10-26T03:15:57.613Z,11.82
2022-10-26T03:18:24.175Z,11.59
2022-10-26T03:20:50.708Z,11.87
2022-10-26T03:23:17.304Z,11.94
2022-10-26T03:25:43.857Z,11.91
2022-10-26T03:28:10.528Z,12.12
2022-10-26T03:30:37.078Z,11.93
2022-10-26T03:33:03.677Z,11.85
2022-10-26T03:35:30.332Z,12.00
2022-10-26T03:37:56.944Z,11.77
2022-10-26T03:40:23.465Z,11.65
2022-10-26T03:42:50.304Z,11.93
2022-10-26T03:45:17.118Z,12.25
2022-10-26T03:47:45.460Z,12.22
2022-10-26T03:50:13.892Z,12.07
2022-10-26T03:52:41.027Z,12.28
2022-10-26T03:55:08.953Z,12.27
2022-10-26T03:57:40.551Z,12.41
2022-10-26T04:00:07.649Z,12.37
2022-10-26T04:02:38.285Z,12.34
2022-10-26T04:05:05.276Z,12.39
2022-10-26T04:07:31.803Z,12.51
2022-10-26T04:09:58.405Z,12.49
2022-10-26T04:12:24.929Z,12.49
2022-10-26T04:14:51.663Z,12.63
2022-10-26T04:17:18.216Z,12.57
2022-10-26T04:19:44.755Z,12.76
2022-10-26T04:22:13.137Z,12.81
2022-10-26T04:24:39.703Z,12.73
2022-10-26T04:27:06.237Z,12.73
2022-10-26T04:29:32.925Z,12.55
2022-10-26T04:31:59.497Z,12.60
2022-10-26T04:34:26.011Z,12.81
2022-10-26T04:36:52.548Z,12.64
2022-10-26T04:39:19.147Z,12.60
2022-10-26T04:41:45.657Z,12.51
2022-10-26T04:44:12.251Z,12.35
2022-10-26T04:46:38.841Z,12.45
2022-10-26T04:49:05.433Z,12.46
2022-10-26T04:51:31.999Z,12.49
2022-10-26T04:53:58.604Z,12.48
2022-10-26T04:56:25.244Z,12.39
2022-10-26T04:58:54.557Z,12.37
2022-10-26T05:01:21.997Z,12.57
2022-10-26T05:03:53.137Z,12.28
2022-10-26T05:06:20.758Z,12.32
2022-10-26T05:08:47.516Z,12.41
2022-10-26T05:11:14.356Z,12.43
2022-10-26T05:13:40.966Z,12.35
2022-10-26T05:16:07.791Z,12.49
2022-10-26T05:18:34.343Z,12.40
2022-10-26T05:21:00.977Z,12.46
2022-10-26T05:23:27.608Z,12.59
2022-10-26T05:25:55.998Z,12.76
2022-10-26T05:28:22.565Z,12.64
2022-10-26T05:30:49.080Z,12.72
2022-10-26T05:33:15.805Z,12.76
2022-10-26T05:35:42.672Z,12.67
2022-10-26T05:38:09.541Z,12.46
2022-10-26T05:40:36.373Z,12.44
2022-10-26T05:43:03.002Z,12.56
2022-10-26T05:45:30.114Z,12.63
2022-10-26T05:47:58.737Z,12.61
2022-10-26T05:50:29.032Z,12.49
2022-10-26T05:52:55.852Z,12.42
2022-10-26T05:55:23.062Z,12.19
2022-10-26T05:57:50.404Z,12.40
2022-10-26T06:00:20.303Z,12.49
2022-10-26T06:03:01.933Z,12.36
2022-10-26T06:05:33.183Z,12.56
2022-10-26T06:07:59.974Z,12.49
2022-10-26T06:10:27.112Z,12.08
2022-10-26T06:12:53.918Z,12.28
2022-10-26T06:15:21.861Z,12.32
2022-10-26T06:17:54.182Z,12.15
2022-10-26T06:20:26.350Z,11.98
2022-10-26T06:23:20.817Z,12.12
2022-10-26T06:26:24.786Z,12.30
2022-10-26T06:29:32.038Z,12.20
2022-10-26T06:31:58.644Z,11.97
2022-10-26T06:34:34.546Z,12.21
2022-10-26T06:37:01.885Z,12.37
2022-10-26T06:39:34.647Z,12.38
2022-10-26T06:42:01.729Z,11.92
2022-10-26T06:44:29.215Z,12.30
2022-10-26T06:47:24.128Z,12.46
2022-10-26T06:50:03.711Z,12.00
2022-10-26T06:52:41.447Z,12.03
2022-10-26T06:55:14.310Z,12.16
2022-10-26T06:57:42.345Z,11.87
2022-10-26T07:00:19.797Z,11.95
2022-10-26T07:02:47.128Z,12.24
2022-10-26T07:05:14.261Z,12.10
2022-10-26T07:07:46.118Z,12.01
2022-10-26T07:10:15.027Z,11.99
2022-10-26T07:12:41.555Z,11.88
2022-10-26T07:15:10.960Z,11.70
2022-10-26T07:17:48.679Z,11.93
2022-10-26T07:20:17.313Z,11.63
2022-10-26T07:22:43.882Z,11.83
2022-10-26T07:25:12.181Z,11.60
2022-10-26T07:27:38.784Z,11.80
2022-10-26T07:30:05.902Z,11.71
2022-10-26T07:32:33.126Z,11.68
2022-10-26T07:34:59.700Z,11.83
2022-10-26T07:37:26.214Z,11.59
2022-10-26T07:39:52.769Z,11.46
2022-10-26T07:42:19.320Z,11.32
2022-10-26T07:44:45.901Z,11.46
2022-10-26T07:47:12.534Z,11.15
2022-10-26T07:49:39.598Z,11.23
2022-10-26T07:52:06.194Z,11.10
2022-10-26T07:54:32.882Z,11.44
2022-10-26T07:56:59.708Z,11.60
2022-10-26T07:59:26.285Z,11.39
2022-10-26T08:01:53.390Z,11.27
2022-10-26T08:04:19.989Z,11.22
2022-10-26T08:06:47.279Z,11.55
2022-10-26T08:09:13.852Z,11.72
2022-10-26T08:11:40.379Z,11.90
2022-10-26T08:14:06.996Z,12.10
2022-10-26T08:16:35.047Z,11.64
2022-10-26T08:19:01.657Z,11.52
2022-10-26T08:21:39.051Z,11.93
2022-10-26T08:24:06.656Z,11.54
2022-10-26T08:26:33.315Z,11.29
2022-10-26T08:28:59.928Z,11.95
2022-10-26T08:31:26.445Z,11.82
2022-10-26T08:33:53.088Z,11.78
2022-10-26T08:36:28.948Z,11.74
2022-10-26T08:38:55.706Z,11.60
2022-10-26T08:42:18.060Z,11.96
2022-10-26T08:44:47.664Z,11.54
2022-10-26T08:49:53.554Z,11.82
2022-10-26T08:52:26.522Z,11.71
2022-10-26T08:55:00.339Z,11.84
2022-10-26T08:57:37.083Z,12.47
2022-10-26T09:00:10.846Z,12.82
2022-10-26T09:02:37.565Z,12.22
2022-10-26T09:05:05.335Z,11.51
2022-10-26T09:07:36.862Z,11.57
2022-10-26T09:10:36.997Z,12.03
2022-10-26T09:13:15.226Z,12.24
2022-10-26T09:16:11.839Z,12.36
2022-10-26T09:19:20.165Z,12.43
2022-10-26T09:22:11.380Z,12.29
2022-10-26T09:24:52.668Z,12.14
2022-10-26T09:27:29.488Z,12.29
2022-10-26T09:29:59.998Z,12.31
2022-10-26T09:32:35.141Z,12.13
2022-10-26T09:35:14.466Z,12.19
2022-10-26T09:37:47.192Z,11.97
2022-10-26T09:40:26.031Z,12.10
2022-10-26T09:42:59.797Z,12.66
2022-10-26T09:45:55.814Z,12.82
2022-10-26T09:48:35.039Z,12.54
2022-10-26T09:51:04.604Z,12.39
2022-10-26T09:53:32.207Z,12.26
2022-10-26T09:56:07.306Z,12.63
2022-10-26T09:58:46.780Z,13.04
2022-10-26T10:01:35.587Z,13.17
2022-10-26T10:04:14.006Z,13.44
2022-10-26T10:06:41.185Z,12.86
2022-10-26T10:09:20.936Z,13.31
2022-10-26T10:11:56.580Z,13.34
2022-10-26T10:14:27.023Z,13.10
2022-10-26T10:16:57.787Z,13.25
2022-10-26T10:19:27.682Z,13.37
2022-10-26T10:21:57.301Z,13.22
2022-10-26T10:24:32.296Z,12.91
2022-10-26T10:27:01.888Z,12.97
2022-10-26T10:29:41.353Z,13.15
2022-10-26T10:32:15.738Z,13.15
2022-10-26T10:34:43.266Z,12.81
2022-10-26T10:37:28.620Z,13.25
2022-10-26T10:40:00.598Z,13.17
2022-10-26T10:42:33.613Z,13.33
2022-10-26T10:45:02.587Z,13.26
2022-10-26T10:47:32.813Z,12.91
2022-10-26T10:50:08.141Z,12.77
2022-10-26T10:52:36.042Z,12.85
2022-10-26T10:55:18.525Z,12.88
2022-10-26T10:58:40.537Z,13.01
2022-10-26T11:01:14.074Z,13.00
2022-10-26T11:04:07.201Z,13.58
2022-10-26T11:06:39.868Z,13.44
2022-10-26T11:09:18.496Z,13.82
2022-10-26T11:11:48.800Z,13.73
2022-10-26T11:14:15.401Z,13.80
2022-10-26T11:17:02.784Z,14.20
2022-10-26T11:19:31.419Z,14.01
2022-10-26T11:21:58.056Z,14.10
2022-10-26T11:24:42.840Z,14.27
2022-10-26T11:27:14.848Z,13.82
2022-10-26T11:30:05.865Z,14.14
2022-10-26T11:32:44.713Z,13.71
2022-10-26T11:35:14.930Z,13.44
2022-10-26T11:37:48.320Z,13.34
2022-10-26T11:40:34.032Z,13.45
2022-10-26T11:43:22.778Z,13.63
2022-10-26T11:46:02.706Z,13.33
2022-10-26T11:48:35.391Z,13.71
2022-10-26T11:51:02.828Z,13.94
2022-10-26T11:53:39.543Z,13.19
2022-10-26T11:56:18.239Z,13.26
2022-10-26T11:58:45.943Z,13.37
2022-10-26T12:01:14.993Z,13.58
2022-10-26T12:03:47.007Z,13.42
2022-10-26T12:06:22.724Z,13.47
2022-10-26T12:09:05.751Z,13.46
2022-10-26T12:11:46.822Z,13.82
2022-10-26T12:14:39.083Z,13.75
2022-10-26T12:17:18.677Z,13.39
2022-10-26T12:19:58.926Z,13.29
2022-10-26T12:22:36.952Z,13.77
2022-10-26T12:25:15.812Z,13.95
2022-10-26T12:27:42.477Z,14.03
2022-10-26T12:30:11.786Z,13.78
2022-10-26T12:32:40.324Z,13.71
2022-10-26T12:35:28.959Z,13.71
2022-10-26T12:37:55.944Z,13.88
2022-10-26T12:40:34.618Z,13.40
2022-10-26T12:43:13.463Z,13.41
2022-10-26T12:45:44.973Z,13.55
2022-10-26T12:48:48.093Z,13.75
2022-10-26T12:51:26.664Z,13.50
2022-10-26T12:54:19.357Z,13.68
2022-10-26T12:56:59.911Z,13.62
2022-10-26T12:59:49.128Z,13.69
2022-10-26T13:02:43.258Z,13.75
2022-10-26T13:05:24.848Z,13.85
2022-10-26T13:07:51.806Z,14.16
2022-10-26T13:10:22.994Z,14.38
2022-10-26T13:12:58.211Z,14.11
2022-10-26T13:15:27.020Z,14.29
2022-10-26T13:18:17.989Z,13.88
2022-10-26T13:21:14.835Z,13.95
2022-10-26T13:23:55.754Z,14.23
2022-10-26T13:26:27.288Z,14.40
2022-10-26T13:29:03.908Z,14.49
2022-10-26T13:31:33.462Z,14.26
2022-10-26T13:34:20.699Z,13.84
2022-10-26T13:36:57.248Z,14.21
2022-10-26T13:39:55.768Z,14.24
2022-10-26T13:42:27.315Z,14.05
2022-10-26T13:45:06.655Z,14.14
2022-10-26T13:47:44.500Z,13.86
2022-10-26T13:50:26.555Z,14.38
2022-10-26T13:53:00.168Z,14.71
2022-10-26T13:55:31.166Z,14.74
2022-10-26T13:58:18.771Z,14.59
2022-10-26T14:01:12.015Z,14.63
2022-10-26T14:03:39.753Z,14.85
2022-10-26T14:06:08.094Z,14.97
2022-10-26T14:08:34.810Z,14.87
2022-10-26T14:11:01.429Z,15.12
2022-10-26T14:13:29.283Z,14.99
2022-10-26T14:15:58.743Z,14.81
2022-10-26T14:18:28.893Z,14.77
2022-10-26T14:21:00.655Z,14.48
2022-10-26T14:23:28.242Z,14.46
2022-10-26T14:25:58.920Z,14.53
2022-10-26T14:28:28.945Z,14.32
2022-10-26T14:31:12.159Z,14.40
2022-10-26T14:33:39.829Z,14.60
2022-10-26T14:36:07.485Z,14.80
2022-10-26T14:38:42.779Z,14.84
2022-10-26T14:41:09.827Z,14.97
2022-10-26T14:43:36.483Z,15.03
2022-10-26T14:46:03.485Z,15.11
2022-10-26T14:48:35.264Z,15.13
2022-10-26T14:51:17.338Z,15.12
2022-10-26T14:53:52.685Z,15.14
2022-10-26T14:56:25.639Z,15.10
2022-10-26T14:58:53.498Z,15.07
2022-10-26T15:01:23.418Z,14.95
2022-10-26T15:04:01.405Z,14.88
2022-10-26T15:06:28.113Z,14.80
2022-10-26T15:09:04.206Z,14.75
2022-10-26T15:11:32.815Z,14.64
2022-10-26T15:14:00.363Z,14.60
2022-10-26T15:16:30.188Z,14.55
2022-10-26T15:19:23.690Z,14.55
2022-10-26T15:21:52.468Z,14.50
2022-10-26T15:24:33.134Z,14.46
2022-10-26T15:27:04.930Z,14.46
2022-10-26T15:29:45.683Z,14.48
2022-10-26T15:32:27.787Z,14.38
2022-10-26T15:35:22.298Z,14.41
2022-10-26T15:37:51.526Z,14.41
2022-10-26T15:40:19.252Z,14.40
2022-10-26T15:42:50.268Z,14.33
2022-10-26T15:45:26.201Z,14.27
2022-10-26T15:47:55.651Z,14.24
2022-10-26T15:50:27.101Z,14.14
2022-10-26T15:53:01.653Z,14.15
2022-10-26T15:55:30.266Z,14.11
2022-10-26T15:57:56.874Z,14.07
2022-10-26T16:00:23.514Z,14.04
2022-10-26T16:02:50.389Z,14.04
2022-10-26T16:05:17.134Z,14.05
2022-10-26T16:07:46.809Z,14.01
2022-10-26T16:10:24.911Z,13.97
2022-10-26T16:12:51.819Z,13.95
2022-10-26T16:15:21.065Z,13.92
2022-10-26T16:17:48.651Z,13.93
2022-10-26T16:20:18.614Z,13.87
2022-10-26T16:22:48.207Z,13.84
2022-10-26T16:25:16.873Z,13.77
2022-10-26T16:27:44.016Z,13.74
2022-10-26T16:30:12.942Z,13.72
2022-10-26T16:32:40.147Z,13.72
2022-10-26T16:35:07.042Z,13.68
2022-10-26T16:37:33.649Z,13.65
2022-10-26T16:40:00.277Z,13.67
2022-10-26T16:42:28.367Z,13.67
2022-10-26T16:44:57.596Z,13.64
2022-10-26T16:47:27.351Z,13.64
2022-10-26T16:49:53.967Z,13.64
2022-10-26T16:52:20.615Z,13.63
2022-10-26T16:54:47.162Z,13.56
2022-10-26T16:57:13.758Z,13.58
2022-10-26T16:59:40.390Z,13.59
2022-10-26T17:02:07.055Z,13.54
2022-10-26T17:04:33.678Z,13.55
2022-10-26T17:07:00.281Z,13.54
2022-10-26T17:09:27.971Z,13.56
2022-10-26T17:11:59.491Z,13.54
2022-10-26T17:14:28.301Z,13.54
2022-10-26T17:16:54.883Z,13.52
2022-10-26T17:19:21.435Z,13.50
2022-10-26T17:21:48.050Z,13.47
2022-10-26T17:24:14.837Z,13.45
2022-10-26T17:26:41.780Z,13.38
2022-10-26T17:29:12.341Z,13.35
2022-10-26T17:31:39.516Z,13.32
2022-10-26T17:34:06.056Z,13.32
2022-10-26T17:36:32.788Z,13.28
2022-10-26T17:39:00.771Z,13.28
2022-10-26T17:41:28.038Z,13.27
2022-10-26T17:43:54.649Z,13.22
2022-10-26T17:46:24.341Z,13.22
2022-10-26T17:48:57.885Z,13.23
2022-10-26T17:51:25.811Z,13.29
2022-10-26T17:53:53.081Z,13.32
2022-10-26T17:56:25.384Z,13.27
2022-10-26T17:58:56.293Z,13.26
2022-10-26T18:01:23.900Z,13.13
2022-10-26T18:03:51.451Z,13.18
2022-10-26T18:06:18.541Z,13.25
2022-10-26T18:08:45.743Z,13.29
2022-10-26T18:11:15.147Z,13.30
2022-10-26T18:13:42.040Z,13.29
2022-10-26T18:16:18.419Z,13.26
2022-10-26T18:18:49.860Z,13.25
2022-10-26T18:21:19.614Z,13.25
2022-10-26T18:23:46.847Z,13.23
2022-10-26T18:26:15.917Z,13.21
2022-10-26T18:28:42.858Z,13.19
2022-10-26T18:31:12.011Z,13.12
2022-10-26T18:33:38.750Z,13.17
2022-10-26T18:36:08.314Z,13.19
2022-10-26T18:38:35.204Z,13.19
2022-10-26T18:41:01.845Z,13.21
2022-10-26T18:43:29.030Z,13.17
2022-10-26T18:46:10.535Z,13.17
2022-10-26T18:48:37.171Z,13.15
2022-10-26T18:51:05.067Z,13.12
2022-10-26T18:53:35.673Z,13.14
2022-10-26T18:56:07.497Z,13.17
2022-10-26T18:58:36.385Z,13.16
2022-10-26T19:01:11.102Z,13.11
2022-10-26T19:03:38.786Z,13.09
2022-10-26T19:06:12.727Z,13.04
2022-10-26T19:08:39.806Z,13.01
2022-10-26T19:11:09.424Z,13.00
2022-10-26T19:13:36.282Z,12.95
2022-10-26T19:16:16.907Z,12.94
2022-10-26T19:18:55.861Z,12.87
2022-10-26T19:21:23.523Z,12.88
2022-10-26T19:23:52.314Z,12.87
2022-10-26T19:26:22.034Z,12.90
2022-10-26T19:28:55.201Z,12.95
2022-10-26T19:31:26.224Z,12.96
2022-10-26T19:33:56.359Z,12.97
2022-10-26T19:36:22.930Z,13.01
2022-10-26T19:38:49.624Z,13.01
2022-10-26T19:41:17.237Z,13.02
2022-10-26T19:43:45.244Z,13.02
2022-10-26T19:46:14.225Z,13.05
2022-10-26T19:48:41.540Z,13.03
2022-10-26T19:51:08.917Z,13.06
2022-10-26T19:53:35.768Z,13.06
2022-10-26T19:56:03.252Z,13.06
2022-10-26T19:58:31.238Z,13.04
2022-10-26T20:01:00.031Z,13.02
2022-10-26T20:03:28.955Z,13.00
2022-10-26T20:05:58.893Z,12.99
2022-10-26T20:08:25.694Z,12.95
2022-10-26T20:10:57.115Z,12.94
2022-10-26T20:13:24.244Z,12.94
2022-10-26T20:15:51.809Z,12.91
2022-10-26T20:18:19.670Z,12.90
2022-10-26T20:20:46.885Z,12.86
2022-10-26T20:23:14.108Z,12.85
2022-10-26T20:25:49.052Z,12.85
2022-10-26T20:28:16.671Z,12.78
2022-10-26T20:30:44.475Z,12.78
2022-10-26T20:33:11.817Z,12.78
2022-10-26T20:35:38.960Z,12.79
2022-10-26T20:38:07.171Z,12.80
2022-10-26T20:40:34.658Z,12.85
2022-10-26T20:43:01.499Z,12.86
2022-10-26T20:45:30.724Z,12.91
2022-10-26T20:47:58.643Z,12.92
2022-10-26T20:50:27.729Z,12.91
2022-10-26T20:53:01.926Z,12.94
2022-10-26T20:55:40.200Z,12.96
2022-10-26T20:58:17.433Z,12.96
2022-10-26T21:00:51.758Z,13.00
2022-10-26T21:03:18.357Z,13.04
2022-10-26T21:05:46.893Z,13.03
2022-10-26T21:08:13.944Z,13.06
2022-10-26T21:10:40.555Z,13.10
2022-10-26T21:13:07.334Z,13.13
2022-10-26T21:15:37.161Z,13.14
2022-10-26T21:18:04.131Z,13.15
2022-10-26T21:20:31.168Z,13.10
2022-10-26T21:22:57.828Z,13.07
2022-10-26T21:25:24.455Z,13.07
2022-10-26T21:27:57.550Z,13.11
2022-10-26T21:30:25.184Z,13.16
2022-10-26T21:32:54.726Z,13.18
2022-10-26T21:35:21.887Z,13.14
2022-10-26T21:37:48.803Z,13.14
2022-10-26T21:40:15.765Z,13.16
2022-10-26T21:42:42.433Z,13.20
2022-10-26T21:45:09.361Z,13.18
2022-10-26T21:47:35.841Z,13.18
2022-10-26T21:50:02.407Z,13.12
2022-10-26T21:52:29.019Z,13.10
2022-10-26T21:54:55.565Z,13.13
2022-10-26T21:57:22.125Z,13.17
2022-10-26T21:59:48.676Z,13.16
2022-10-26T22:02:15.418Z,13.11
2022-10-26T22:04:41.965Z,13.12
2022-10-26T22:07:08.593Z,13.15
2022-10-26T22:09:40.686Z,13.15
2022-10-26T22:12:16.230Z,13.16
2022-10-26T22:14:42.873Z,13.15
2022-10-26T22:17:09.542Z,13.14
2022-10-26T22:19:36.095Z,13.15
2022-10-26T22:22:02.661Z,13.17
2022-10-26T22:24:29.188Z,13.11
2022-10-26T22:26:55.867Z,13.15
2022-10-26T22:29:22.428Z,13.14
2022-10-26T22:31:50.625Z,13.14
2022-10-26T22:34:17.285Z,13.11
2022-10-26T22:36:44.120Z,13.09
2022-10-26T22:39:10.847Z,13.10
2022-10-26T22:41:37.439Z,13.07
2022-10-26T22:44:04.058Z,13.07
2022-10-26T22:46:30.812Z,13.10
2022-10-26T22:48:59.832Z,13.07
2022-10-26T22:51:29.665Z,13.09
2022-10-26T22:53:57.882Z,13.09
2022-10-26T22:58:57.143Z,13.04
2022-10-26T23:01:26.571Z,13.04
2022-10-26T23:03:56.072Z,13.05
2022-10-26T23:06:24.641Z,13.05
2022-10-26T23:08:51.615Z,13.07
2022-10-26T23:11:19.689Z,13.07
2022-10-26T23:13:46.541Z,13.04
2022-10-26T23:16:15.699Z,13.02
2022-10-26T23:18:42.327Z,13.02
2022-10-26T23:21:10.498Z,13.01
2022-10-26T23:23:37.716Z,13.01
2022-10-26T23:26:07.330Z,13.02
2022-10-26T23:28:34.898Z,13.04
2022-10-26T23:31:01.933Z,13.02
2022-10-26T23:33:28.486Z,13.05
2022-10-26T23:35:55.234Z,13.07
2022-10-26T23:38:21.757Z,13.06
2022-10-26T23:40:56.097Z,13.05
2022-10-26T23:43:22.738Z,13.08
2022-10-26T23:45:49.363Z,13.09
2022-10-26T23:48:16.815Z,13.07
2022-10-26T23:50:44.584Z,13.05
2022-10-26T23:53:12.472Z,13.07
2022-10-26T23:55:39.677Z,13.09
2022-10-26T23:58:06.606Z,13.08
